createdAt,value
2023-02-09T00:02:01.198Z,19.10
2023-02-09T00:07:01.133Z,18.00
2023-02-09T00:12:01.098Z,19.30
2023-02-09T00:17:01.287Z,18.90
2023-02-09T00:22:04.278Z,19.80
2023-02-09T00:27:00.832Z,18.90
2023-02-09T00:32:00.828Z,18.80
2023-02-09T00:37:00.686Z,20.00
2023-02-09T00:42:00.651Z,21.20
2023-02-09T00:47:00.591Z,20.50
2023-02-09T00:52:00.555Z,19.30
2023-02-09T00:57:00.517Z,20.80
2023-02-09T01:02:00.348Z,18.90
2023-02-09T01:07:00.303Z,18.10
2023-02-09T01:12:00.248Z,17.30
2023-02-09T01:17:00.261Z,17.90
2023-02-09T01:22:00.148Z,18.70
2023-02-09T01:27:00.076Z,17.70
2023-02-09T01:32:00.195Z,17.80
2023-02-09T01:36:59.915Z,19.20
2023-02-09T01:41:59.876Z,19.30
2023-02-09T01:46:59.786Z,16.10
2023-02-09T01:51:59.697Z,19.20
2023-02-09T01:56:59.677Z,18.00
2023-02-09T02:01:59.586Z,19.20
2023-02-09T02:06:59.593Z,18.90
2023-02-09T02:11:59.487Z,19.00
2023-02-09T02:16:59.448Z,18.00
2023-02-09T02:21:59.440Z,18.50
2023-02-09T02:26:59.307Z,19.60
2023-02-09T02:31:59.212Z,18.70
2023-02-09T02:36:59.196Z,20.10
2023-02-09T02:41:59.107Z,18.70
2023-02-09T02:46:59.035Z,20.00
2023-02-09T02:51:58.949Z,20.30
2023-02-09T02:56:58.990Z,19.90
2023-02-09T03:01:58.839Z,19.90
2023-02-09T03:06:58.751Z,22.60
2023-02-09T03:11:58.708Z,24.40
2023-02-09T03:16:58.697Z,22.10
2023-02-09T03:21:58.570Z,22.70
2023-02-09T03:26:58.516Z,24.80
2023-02-09T03:31:58.507Z,22.70
2023-02-09T03:36:58.430Z,24.30
2023-02-09T03:41:58.401Z,22.90
2023-02-09T03:46:58.260Z,25.20
2023-02-09T03:51:58.206Z,25.10
2023-02-09T03:56:58.124Z,24.70
2023-02-09T04:01:58.140Z,25.80
2023-02-09T04:06:58.009Z,24.70
2023-02-09T04:11:57.926Z,24.90
2023-02-09T04:16:57.849Z,24.60
2023-02-09T04:21:57.803Z,25.50
2023-02-09T04:26:57.768Z,25.60
2023-02-09T04:31:57.760Z,28.50
2023-02-09T04:36:57.621Z,28.40
2023-02-09T04:41:57.560Z,28.10
2023-02-09T04:46:57.553Z,28.80
2023-02-09T04:51:57.416Z,27.90
2023-02-09T04:56:57.413Z,31.30
2023-02-09T05:01:57.372Z,29.80
2023-02-09T05:06:57.218Z,29.10
2023-02-09T05:11:57.172Z,31.00
2023-02-09T05:16:57.191Z,35.90
2023-02-09T05:21:57.074Z,35.10
2023-02-09T05:26:56.961Z,33.20
2023-02-09T05:31:57.797Z,35.70
2023-02-09T05:36:56.873Z,37.40
2023-02-09T05:41:56.842Z,36.00
2023-02-09T05:46:56.713Z,38.50
2023-02-09T05:51:56.647Z,34.50
2023-02-09T05:56:56.612Z,34.90
2023-02-09T06:01:56.555Z,35.40
2023-02-09T06:06:56.469Z,34.40
2023-02-09T06:11:56.429Z,40.60
2023-02-09T06:16:56.339Z,36.10
2023-02-09T06:21:56.298Z,39.30
2023-02-09T06:26:56.263Z,38.50
2023-02-09T06:31:56.316Z,39.90
2023-02-09T06:36:56.458Z,45.20
2023-02-09T06:41:56.065Z,43.40
2023-02-09T06:46:55.946Z,43.40
2023-02-09T06:51:55.966Z,42.50
2023-02-09T06:56:55.817Z,39.20
2023-02-09T07:01:55.808Z,39.50
2023-02-09T07:06:55.744Z,36.00
2023-02-09T07:11:56.485Z,39.60
2023-02-09T07:16:55.554Z,35.80
2023-02-09T07:21:55.482Z,37.20
2023-02-09T07:26:55.494Z,31.70
2023-02-09T07:31:55.749Z,33.70
2023-02-09T07:36:55.341Z,31.40
2023-02-09T07:41:55.268Z,34.80
2023-02-09T07:46:55.234Z,38.00
2023-02-09T07:51:55.159Z,38.30
2023-02-09T07:56:55.030Z,38.00
2023-02-09T08:01:55.010Z,37.20
2023-02-09T08:06:54.883Z,36.10
2023-02-09T08:11:54.843Z,38.10
2023-02-09T08:16:54.823Z,40.40
2023-02-09T08:21:54.722Z,38.00
2023-02-09T08:26:54.735Z,37.40
2023-02-09T08:31:54.665Z,41.70
2023-02-09T08:36:54.544Z,39.70
2023-02-09T08:41:54.436Z,42.90
2023-02-09T08:46:54.634Z,39.70
2023-02-09T08:51:54.326Z,38.90
2023-02-09T08:56:54.236Z,38.00
2023-02-09T09:01:54.166Z,35.70
2023-02-09T09:06:54.113Z,33.10
2023-02-09T09:11:54.038Z,33.50
2023-02-09T09:16:54.005Z,32.50
2023-02-09T09:21:53.931Z,31.30
2023-02-09T09:26:53.937Z,32.60
2023-02-09T09:31:53.840Z,30.30
2023-02-09T09:36:53.731Z,31.40
2023-02-09T09:41:53.678Z,31.40
2023-02-09T09:46:53.626Z,28.20
2023-02-09T09:51:53.546Z,29.30
2023-02-09T09:56:53.466Z,29.20
2023-02-09T10:01:53.482Z,23.40
2023-02-09T10:06:53.331Z,24.60
2023-02-09T10:11:53.261Z,22.50
2023-02-09T10:16:53.272Z,24.70
2023-02-09T10:21:53.171Z,23.60
2023-02-09T10:26:53.072Z,23.90
2023-02-09T10:31:53.392Z,22.40
2023-02-09T10:36:52.960Z,22.60
2023-02-09T10:41:52.845Z,22.70
2023-02-09T10:46:52.794Z,21.50
2023-02-09T10:51:52.756Z,23.60
2023-02-09T10:56:52.695Z,21.20
2023-02-09T11:01:52.654Z,21.70
2023-02-09T11:06:52.578Z,22.70
2023-02-09T11:11:52.474Z,22.50
2023-02-09T11:16:52.431Z,21.70
2023-02-09T11:21:52.343Z,20.20
2023-02-09T11:26:52.267Z,19.60
2023-02-09T11:31:52.302Z,19.50
2023-02-09T11:36:52.138Z,18.10
2023-02-09T11:41:52.069Z,19.40
2023-02-09T11:46:52.384Z,19.40
2023-02-09T11:51:51.926Z,20.70
2023-02-09T11:56:51.953Z,17.90
2023-02-09T12:01:51.819Z,18.20
2023-02-09T12:06:51.797Z,18.00
2023-02-09T12:11:51.673Z,19.10
2023-02-09T12:16:51.595Z,17.50
2023-02-09T12:21:51.525Z,19.40
2023-02-09T12:26:51.498Z,18.40
2023-02-09T12:31:51.465Z,16.10
2023-02-09T12:36:51.330Z,23.00
2023-02-09T12:41:51.267Z,21.00
2023-02-09T12:46:51.246Z,21.80
2023-02-09T12:51:51.237Z,23.70
2023-02-09T12:56:51.078Z,20.60
2023-02-09T13:01:51.167Z,25.50
2023-02-09T13:06:51.094Z,24.20
2023-02-09T13:11:50.859Z,23.80
2023-02-09T13:16:50.973Z,25.50
2023-02-09T13:21:50.737Z,26.30
2023-02-09T13:26:50.669Z,25.00
2023-02-09T13:31:50.591Z,24.60
2023-02-09T13:36:50.548Z,25.80
2023-02-09T13:41:50.478Z,24.20
2023-02-09T13:46:50.377Z,23.00
2023-02-09T13:51:50.358Z,21.70
2023-02-09T13:56:50.246Z,22.60
2023-02-09T14:01:50.168Z,20.80
2023-02-09T14:06:50.196Z,22.10
2023-02-09T14:11:50.068Z,20.50
2023-02-09T14:16:53.733Z,23.20
2023-02-09T14:21:49.935Z,22.40
2023-02-09T14:26:49.846Z,23.30
2023-02-09T14:31:49.790Z,23.40
2023-02-09T14:36:49.756Z,22.00
2023-02-09T14:41:49.674Z,23.60
2023-02-09T14:46:49.609Z,22.10
2023-02-09T14:51:49.546Z,27.00
2023-02-09T14:56:49.457Z,23.40
2023-02-09T15:01:49.478Z,23.00
2023-02-09T15:06:49.371Z,22.60
2023-02-09T15:11:49.325Z,23.70
2023-02-09T15:16:49.209Z,24.30
2023-02-09T15:22:02.041Z,19.80
2023-02-09T15:26:50.080Z,23.00
2023-02-09T15:31:49.024Z,24.80
2023-02-09T15:36:48.973Z,27.30
2023-02-09T15:41:48.911Z,26.90
2023-02-09T15:46:48.980Z,27.40
2023-02-09T15:51:48.760Z,27.20
2023-02-09T15:56:48.711Z,27.50
2023-02-09T16:01:48.713Z,27.30
2023-02-09T16:06:48.577Z,28.80
2023-02-09T16:11:48.682Z,28.00
2023-02-09T16:16:48.550Z,29.20
2023-02-09T16:21:48.361Z,30.10
2023-02-09T16:26:48.293Z,28.20
2023-02-09T16:31:49.040Z,28.90
2023-02-09T16:36:48.714Z,28.70
2023-02-09T16:41:48.128Z,30.10
2023-02-09T16:46:48.081Z,29.50
2023-02-09T16:51:47.956Z,31.10
2023-02-09T16:56:54.117Z,33.80
2023-02-09T17:01:49.145Z,31.60
2023-02-09T17:06:47.760Z,30.90
2023-02-09T17:11:47.790Z,30.80
2023-02-09T17:16:47.718Z,43.20
2023-02-09T17:21:47.620Z,37.60
2023-02-09T17:26:47.556Z,31.50
2023-02-09T17:31:53.499Z,34.90
2023-02-09T17:36:48.448Z,35.40
2023-02-09T17:41:47.316Z,31.70
2023-02-09T17:46:47.342Z,34.30
2023-02-09T17:51:47.202Z,37.00
2023-02-09T17:56:48.262Z,33.40
2023-02-09T18:01:47.150Z,35.70
2023-02-09T18:06:47.053Z,36.60
2023-02-09T18:11:46.912Z,40.40
2023-02-09T18:16:47.317Z,36.50
2023-02-09T18:21:46.844Z,38.40
2023-02-09T18:26:46.713Z,40.20
2023-02-09T18:31:46.877Z,38.60
2023-02-09T18:36:46.595Z,39.20
2023-02-09T18:41:46.626Z,40.10
2023-02-09T18:46:46.499Z,37.80
2023-02-09T18:51:46.412Z,37.70
2023-02-09T18:56:46.400Z,39.70
2023-02-09T19:01:46.522Z,41.60
2023-02-09T19:06:46.202Z,40.60
2023-02-09T19:11:46.344Z,44.10
2023-02-09T19:16:46.164Z,41.40
2023-02-09T19:21:46.109Z,37.40
2023-02-09T19:26:46.041Z,35.30
2023-02-09T19:31:45.938Z,39.10
2023-02-09T19:36:45.923Z,33.40
2023-02-09T19:41:45.803Z,34.90
2023-02-09T19:46:45.829Z,39.10
2023-02-09T19:51:45.784Z,37.10
2023-02-09T19:56:45.749Z,41.10
2023-02-09T20:01:45.701Z,37.00
2023-02-09T20:06:45.633Z,37.70
2023-02-09T20:11:45.399Z,37.50
2023-02-09T20:16:45.411Z,38.70
2023-02-09T20:21:45.380Z,38.40
2023-02-09T20:26:45.223Z,35.40
2023-02-09T20:31:45.320Z,38.70
2023-02-09T20:36:45.171Z,38.40
2023-02-09T20:41:45.299Z,34.50
2023-02-09T20:46:44.961Z,36.80
2023-02-09T20:51:45.058Z,36.80
2023-02-09T20:56:44.840Z,35.70
2023-02-09T21:01:44.906Z,35.10
2023-02-09T21:06:44.684Z,33.50
2023-02-09T21:11:44.623Z,33.10
2023-02-09T21:16:44.705Z,32.70
2023-02-09T21:21:44.495Z,32.50
2023-02-09T21:26:44.466Z,35.40
2023-02-09T21:31:44.420Z,34.20
2023-02-09T21:36:44.405Z,37.00
2023-02-09T21:41:45.163Z,35.00
2023-02-09T21:46:44.164Z,35.60
2023-02-09T21:51:44.154Z,38.50
2023-02-09T21:56:44.047Z,38.40
2023-02-09T22:01:43.982Z,36.70
2023-02-09T22:06:43.952Z,43.10
2023-02-09T22:11:43.934Z,39.60
2023-02-09T22:16:43.781Z,38.50
2023-02-09T22:21:43.766Z,36.90
2023-02-09T22:26:43.673Z,39.00
2023-02-09T22:31:43.705Z,38.50
2023-02-09T22:36:43.533Z,38.70
2023-02-09T22:41:43.450Z,40.20
2023-02-09T22:46:43.404Z,35.90
2023-02-09T22:51:43.621Z,35.90
2023-02-09T22:56:43.325Z,35.30
2023-02-09T23:01:43.293Z,33.10
2023-02-09T23:06:43.152Z,36.80
2023-02-09T23:11:43.092Z,37.50
2023-02-09T23:16:43.034Z,44.00
2023-02-09T23:21:42.981Z,43.10
2023-02-09T23:26:42.934Z,41.20
2023-02-09T23:31:42.882Z,39.00
2023-02-09T23:36:42.778Z,40.60
2023-02-09T23:41:42.690Z,41.00
2023-02-09T23:46:42.717Z,42.30
2023-02-09T23:51:42.611Z,42.10
2023-02-09T23:56:43.188Z,41.30
